sensor_id;sensor_type;location;lat;lon;timestamp;pressure;altitude;pressure_sealevel;temperature;humidity
72157;BME280;60035;52.122;5.406;2023-07-24T00:00:15;100576.53;;;18.52;100.00
72157;BME280;60035;52.122;5.406;2023-07-24T00:02:42;100580.91;;;18.51;100.00
72157;BME280;60035;52.122;5.406;2023-07-24T00:05:08;100578.31;;;18.51;100.00
72157;BME280;60035;52.122;5.406;2023-07-24T00:07:36;100584.53;;;18.48;100.00
72157;BME280;60035;52.122;5.406;2023-07-24T00:10:04;100585.56;;;18.46;100.00
72157;BME280;60035;52.122;5.406;2023-07-24T00:12:30;100578.81;;;18.43;100.00
72157;BME280;60035;52.122;5.406;2023-07-24T00:14:57;100583.25;;;18.41;100.00
72157;BME280;60035;52.122;5.406;2023-07-24T00:17:23;100576.50;;;18.39;100.00
72157;BME280;60035;52.122;5.406;2023-07-24T00:19:50;100567.00;;;18.39;100.00
72157;BME280;60035;52.122;5.406;2023-07-24T00:22:17;100572.19;;;18.39;100.00
72157;BME280;60035;52.122;5.406;2023-07-24T00:24:43;100558.59;;;18.36;100.00
72157;BME280;60035;52.122;5.406;2023-07-24T00:27:10;100558.16;;;18.29;100.00
72157;BME280;60035;52.122;5.406;2023-07-24T00:29:36;100557.44;;;18.27;100.00
72157;BME280;60035;52.122;5.406;2023-07-24T00:32:03;100558.56;;;18.23;100.00
72157;BME280;60035;52.122;5.406;2023-07-24T00:34:30;100557.09;;;18.19;100.00
72157;BME280;60035;52.122;5.406;2023-07-24T00:36:56;100561.66;;;18.15;100.00
72157;BME280;60035;52.122;5.406;2023-07-24T00:39:23;100555.97;;;18.10;100.00
72157;BME280;60035;52.122;5.406;2023-07-24T00:41:50;100558.63;;;18.08;100.00
72157;BME280;60035;52.122;5.406;2023-07-24T00:44:18;100552.75;;;18.06;100.00
72157;BME280;60035;52.122;5.406;2023-07-24T00:46:45;100542.38;;;18.06;100.00
72157;BME280;60035;52.122;5.406;2023-07-24T00:49:12;100540.72;;;18.05;100.00
72157;BME280;60035;52.122;5.406;2023-07-24T00:51:42;100540.50;;;18.08;100.00
72157;BME280;60035;52.122;5.406;2023-07-24T00:54:11;100524.97;;;18.08;100.00
72157;BME280;60035;52.122;5.406;2023-07-24T00:56:38;100531.91;;;18.08;100.00
72157;BME280;60035;52.122;5.406;2023-07-24T00:59:05;100523.22;;;18.09;100.00
72157;BME280;60035;52.122;5.406;2023-07-24T01:01:37;100519.78;;;18.08;100.00
72157;BME280;60035;52.122;5.406;2023-07-24T01:04:06;100508.81;;;18.05;100.00
72157;BME280;60035;52.122;5.406;2023-07-24T01:06:33;100513.25;;;18.03;100.00
72157;BME280;60035;52.122;5.406;2023-07-24T01:09:00;100516.88;;;18.00;100.00
72157;BME280;60035;52.122;5.406;2023-07-24T01:11:37;100516.97;;;17.98;100.00
72157;BME280;60035;52.122;5.406;2023-07-24T01:14:16;100518.75;;;17.98;100.00
72157;BME280;60035;52.122;5.406;2023-07-24T01:16:44;100518.63;;;18.00;100.00
72157;BME280;60035;52.122;5.406;2023-07-24T01:22:12;100514.06;;;18.03;100.00
72157;BME280;60035;52.122;5.406;2023-07-24T01:27:45;100518.75;;;17.98;100.00
72157;BME280;60035;52.122;5.406;2023-07-24T01:30:17;100516.16;;;17.98;100.00
72157;BME280;60035;52.122;5.406;2023-07-24T01:32:45;100524.00;;;17.96;100.00
72157;BME280;60035;52.122;5.406;2023-07-24T01:35:11;100513.63;;;17.96;100.00
72157;BME280;60035;52.122;5.406;2023-07-24T01:37:39;100510.97;;;17.98;100.00
72157;BME280;60035;52.122;5.406;2023-07-24T01:40:07;100507.53;;;17.97;100.00
72157;BME280;60035;52.122;5.406;2023-07-24T01:42:35;100509.19;;;17.98;100.00
72157;BME280;60035;52.122;5.406;2023-07-24T01:45:03;100507.44;;;17.99;100.00
72157;BME280;60035;52.122;5.406;2023-07-24T01:47:30;100502.34;;;17.97;100.00
72157;BME280;60035;52.122;5.406;2023-07-24T01:49:57;100495.72;;;17.93;100.00
72157;BME280;60035;52.122;5.406;2023-07-24T01:52:23;100485.44;;;17.92;100.00
72157;BME280;60035;52.122;5.406;2023-07-24T01:54:50;100476.84;;;17.91;100.00
72157;BME280;60035;52.122;5.406;2023-07-24T01:57:17;100476.00;;;17.91;100.00
72157;BME280;60035;52.122;5.406;2023-07-24T01:59:44;100482.09;;;17.90;100.00
72157;BME280;60035;52.122;5.406;2023-07-24T02:02:11;100486.75;;;17.85;100.00
72157;BME280;60035;52.122;5.406;2023-07-24T02:04:38;100476.59;;;17.81;100.00
72157;BME280;60035;52.122;5.406;2023-07-24T02:07:04;100469.56;;;17.84;100.00
72157;BME280;60035;52.122;5.406;2023-07-24T02:09:31;100469.47;;;17.85;100.00
72157;BME280;60035;52.122;5.406;2023-07-24T02:12:03;100474.53;;;17.87;100.00
72157;BME280;60035;52.122;5.406;2023-07-24T02:14:30;100476.22;;;17.88;100.00
72157;BME280;60035;52.122;5.406;2023-07-24T02:16:57;100471.03;;;17.88;100.00
72157;BME280;60035;52.122;5.406;2023-07-24T02:19:23;100475.28;;;17.89;100.00
72157;BME280;60035;52.122;5.406;2023-07-24T02:21:50;100468.34;;;17.89;100.00
72157;BME280;60035;52.122;5.406;2023-07-24T02:24:16;100466.66;;;17.88;100.00
72157;BME280;60035;52.122;5.406;2023-07-24T02:26:43;100461.59;;;17.87;100.00
72157;BME280;60035;52.122;5.406;2023-07-24T02:29:09;100460.78;;;17.86;100.00
72157;BME280;60035;52.122;5.406;2023-07-24T02:31:36;100457.44;;;17.84;100.00
72157;BME280;60035;52.122;5.406;2023-07-24T02:34:02;100448.22;;;17.80;100.00
72157;BME280;60035;52.122;5.406;2023-07-24T02:36:29;100448.22;;;17.80;100.00
72157;BME280;60035;52.122;5.406;2023-07-24T02:38:56;100446.56;;;17.79;100.00
72157;BME280;60035;52.122;5.406;2023-07-24T02:41:23;100446.88;;;17.74;100.00
72157;BME280;60035;52.122;5.406;2023-07-24T02:43:49;100443.25;;;17.77;100.00
72157;BME280;60035;52.122;5.406;2023-07-24T02:46:16;100437.03;;;17.79;100.00
72157;BME280;60035;52.122;5.406;2023-07-24T02:48:42;100443.03;;;17.80;100.00
72157;BME280;60035;52.122;5.406;2023-07-24T02:51:09;100445.53;;;17.81;100.00
72157;BME280;60035;52.122;5.406;2023-07-24T02:53:35;100440.34;;;17.81;100.00
72157;BME280;60035;52.122;5.406;2023-07-24T02:56:02;100446.44;;;17.80;100.00
72157;BME280;60035;52.122;5.406;2023-07-24T02:58:28;100444.81;;;17.79;100.00
72157;BME280;60035;52.122;5.406;2023-07-24T03:01:02;100435.38;;;17.78;100.00
72157;BME280;60035;52.122;5.406;2023-07-24T03:03:29;100437.03;;;17.79;100.00
72157;BME280;60035;52.122;5.406;2023-07-24T03:05:56;100438.78;;;17.79;100.00
72157;BME280;60035;52.122;5.406;2023-07-24T03:08:22;100440.44;;;17.80;100.00
72157;BME280;60035;52.122;5.406;2023-07-24T03:10:49;100431.75;;;17.81;100.00
72157;BME280;60035;52.122;5.406;2023-07-24T03:13:15;100428.31;;;17.80;100.00
72157;BME280;60035;52.122;5.406;2023-07-24T03:15:42;100429.88;;;17.83;100.00
72157;BME280;60035;52.122;5.406;2023-07-24T03:18:09;100434.25;;;17.82;100.00
72157;BME280;60035;52.122;5.406;2023-07-24T03:20:35;100431.75;;;17.81;100.00
72157;BME280;60035;52.122;5.406;2023-07-24T03:23:02;100428.13;;;17.84;100.00
72157;BME280;60035;52.122;5.406;2023-07-24T03:25:28;100416.81;;;17.85;100.00
72157;BME280;60035;52.122;5.406;2023-07-24T03:27:56;100411.56;;;17.86;100.00
72157;BME280;60035;52.122;5.406;2023-07-24T03:30:22;100404.81;;;17.84;100.00
72157;BME280;60035;52.122;5.406;2023-07-24T03:32:49;100417.78;;;17.84;100.00
72157;BME280;60035;52.122;5.406;2023-07-24T03:35:15;100419.53;;;17.83;100.00
72157;BME280;60035;52.122;5.406;2023-07-24T03:37:42;100422.97;;;17.84;100.00
72157;BME280;60035;52.122;5.406;2023-07-24T03:40:09;100416.31;;;17.79;100.00
72157;BME280;60035;52.122;5.406;2023-07-24T03:42:36;100419.94;;;17.77;100.00
72157;BME280;60035;52.122;5.406;2023-07-24T03:45:02;100419.31;;;17.73;100.00
72157;BME280;60035;52.122;5.406;2023-07-24T03:47:32;100421.16;;;17.71;100.00
72157;BME280;60035;52.122;5.406;2023-07-24T03:49:59;100409.06;;;17.72;100.00
72157;BME280;60035;52.122;5.406;2023-07-24T03:52:25;100412.47;;;17.72;100.00
72157;BME280;60035;52.122;5.406;2023-07-24T03:54:52;100413.41;;;17.71;100.00
72157;BME280;60035;52.122;5.406;2023-07-24T03:57:19;100415.28;;;17.69;100.00
72157;BME280;60035;52.122;5.406;2023-07-24T03:59:45;100418.78;;;17.68;100.00
72157;BME280;60035;52.122;5.406;2023-07-24T04:02:12;100410.28;;;17.66;100.00
72157;BME280;60035;52.122;5.406;2023-07-24T04:04:38;100414.66;;;17.65;100.00
72157;BME280;60035;52.122;5.406;2023-07-24T04:07:05;100412.16;;;17.64;100.00
72157;BME280;60035;52.122;5.406;2023-07-24T04:09:33;100414.97;;;17.61;100.00
72157;BME280;60035;52.122;5.406;2023-07-24T04:12:00;100408.94;;;17.60;100.00
72157;BME280;60035;52.122;5.406;2023-07-24T04:14:26;100406.56;;;17.57;100.00
72157;BME280;60035;52.122;5.406;2023-07-24T04:16:53;100408.41;;;17.55;100.00
72157;BME280;60035;52.122;5.406;2023-07-24T04:19:22;100418.88;;;17.54;100.00
72157;BME280;60035;52.122;5.406;2023-07-24T04:21:48;100399.94;;;17.53;100.00
72157;BME280;60035;52.122;5.406;2023-07-24T04:24:15;100410.56;;;17.48;100.00
72157;BME280;60035;52.122;5.406;2023-07-24T04:26:41;100407.16;;;17.48;100.00
72157;BME280;60035;52.122;5.406;2023-07-24T04:29:08;100405.50;;;17.47;100.00
72157;BME280;60035;52.122;5.406;2023-07-24T04:31:35;100414.19;;;17.46;100.00
72157;BME280;60035;52.122;5.406;2023-07-24T04:34:01;100403.94;;;17.44;100.00
72157;BME280;60035;52.122;5.406;2023-07-24T04:36:28;100416.59;;;17.49;100.00
72157;BME280;60035;52.122;5.406;2023-07-24T04:38:55;100425.19;;;17.49;100.00
72157;BME280;60035;52.122;5.406;2023-07-24T04:41:21;100429.53;;;17.49;100.00
72157;BME280;60035;52.122;5.406;2023-07-24T04:43:48;100423.41;;;17.50;100.00
72157;BME280;60035;52.122;5.406;2023-07-24T04:46:14;100418.16;;;17.52;100.00
72157;BME280;60035;52.122;5.406;2023-07-24T04:48:41;100423.34;;;17.52;100.00
72157;BME280;60035;52.122;5.406;2023-07-24T04:51:08;100432.13;;;17.49;100.00
72157;BME280;60035;52.122;5.406;2023-07-24T04:53:34;100425.28;;;17.48;100.00
72157;BME280;60035;52.122;5.406;2023-07-24T04:56:01;100415.84;;;17.47;100.00
72157;BME280;60035;52.122;5.406;2023-07-24T04:58:27;100415.31;;;17.42;100.00
72157;BME280;60035;52.122;5.406;2023-07-24T05:00:54;100418.00;;;17.40;100.00
72157;BME280;60035;52.122;5.406;2023-07-24T05:03:20;100418.94;;;17.39;100.00
72157;BME280;60035;52.122;5.406;2023-07-24T05:05:54;100415.44;;;17.40;100.00
72157;BME280;60035;52.122;5.406;2023-07-24T05:08:22;100429.41;;;17.38;100.00
72157;BME280;60035;52.122;5.406;2023-07-24T05:10:56;100428.66;;;17.36;100.00
72157;BME280;60035;52.122;5.406;2023-07-24T05:13:23;100421.91;;;17.33;100.00
72157;BME280;60035;52.122;5.406;2023-07-24T05:15:49;100415.91;;;17.32;100.00
72157;BME280;60035;52.122;5.406;2023-07-24T05:18:16;100417.47;;;17.35;100.00
72157;BME280;60035;52.122;5.406;2023-07-24T05:20:45;100423.41;;;17.37;100.00
72157;BME280;60035;52.122;5.406;2023-07-24T05:23:13;100419.84;;;17.38;100.00
72157;BME280;60035;52.122;5.406;2023-07-24T05:25:40;100427.44;;;17.41;100.00
72157;BME280;60035;52.122;5.406;2023-07-24T05:28:06;100427.44;;;17.41;100.00
72157;BME280;60035;52.122;5.406;2023-07-24T05:30:33;100427.97;;;17.46;100.00
72157;BME280;60035;52.122;5.406;2023-07-24T05:33:00;100431.19;;;17.50;100.00
72157;BME280;60035;52.122;5.406;2023-07-24T05:35:27;100430.75;;;17.43;100.00
72157;BME280;60035;52.122;5.406;2023-07-24T05:37:53;100431.38;;;17.47;100.00
72157;BME280;60035;52.122;5.406;2023-07-24T05:40:20;100427.03;;;17.47;100.00
72157;BME280;60035;52.122;5.406;2023-07-24T05:42:46;100427.66;;;17.51;100.00
72157;BME280;60035;52.122;5.406;2023-07-24T05:45:14;100427.66;;;17.51;100.00
72157;BME280;60035;52.122;5.406;2023-07-24T05:47:43;100420.63;;;17.53;100.00
72157;BME280;60035;52.122;5.406;2023-07-24T05:50:10;100425.50;;;17.58;100.00
72157;BME280;60035;52.122;5.406;2023-07-24T05:52:39;100421.34;;;17.55;100.00
72157;BME280;60035;52.122;5.406;2023-07-24T05:55:06;100440.50;;;17.53;100.00
72157;BME280;60035;52.122;5.406;2023-07-24T05:57:33;100436.59;;;17.60;100.00
72157;BME280;60035;52.122;5.406;2023-07-24T06:00:00;100437.41;;;17.60;100.00
72157;BME280;60035;52.122;5.406;2023-07-24T06:02:26;100434.81;;;17.60;100.00
72157;BME280;60035;52.122;5.406;2023-07-24T06:04:53;100434.63;;;17.63;100.00
72157;BME280;60035;52.122;5.406;2023-07-24T06:07:19;100439.41;;;17.70;100.00
72157;BME280;60035;52.122;5.406;2023-07-24T06:09:46;100437.03;;;17.79;100.00
72157;BME280;60035;52.122;5.406;2023-07-24T06:12:12;100436.84;;;17.82;100.00
72157;BME280;60035;52.122;5.406;2023-07-24T06:14:39;100437.34;;;17.88;100.00
72157;BME280;60035;52.122;5.406;2023-07-24T06:17:05;100430.56;;;18.00;100.00
72157;BME280;60035;52.122;5.406;2023-07-24T06:19:32;100441.00;;;18.11;100.00
72157;BME280;60035;52.122;5.406;2023-07-24T06:21:58;100439.16;;;18.26;100.00
72157;BME280;60035;52.122;5.406;2023-07-24T06:24:25;100441.53;;;18.29;100.00
72157;BME280;60035;52.122;5.406;2023-07-24T06:26:52;100442.44;;;18.28;100.00
72157;BME280;60035;52.122;5.406;2023-07-24T06:29:18;100441.63;;;18.27;100.00
72157;BME280;60035;52.122;5.406;2023-07-24T06:31:45;100442.97;;;18.20;100.00
72157;BME280;60035;52.122;5.406;2023-07-24T06:34:11;100445.69;;;18.19;100.00
72157;BME280;60035;52.122;5.406;2023-07-24T06:36:38;100441.00;;;18.24;100.00
72157;BME280;60035;52.122;5.406;2023-07-24T06:39:04;100440.38;;;18.33;100.00
72157;BME280;60035;52.122;5.406;2023-07-24T06:41:31;100445.56;;;18.33;100.00
72157;BME280;60035;52.122;5.406;2023-07-24T06:43:57;100450.75;;;18.33;100.00
72157;BME280;60035;52.122;5.406;2023-07-24T06:46:24;100453.44;;;18.44;100.00
72157;BME280;60035;52.122;5.406;2023-07-24T06:48:50;100447.81;;;18.51;100.00
72157;BME280;60035;52.122;5.406;2023-07-24T06:51:17;100449.75;;;18.60;100.00
72157;BME280;60035;52.122;5.406;2023-07-24T06:53:43;100450.28;;;18.65;100.00
72157;BME280;60035;52.122;5.406;2023-07-24T06:56:10;100452.22;;;18.74;100.00
72157;BME280;60035;52.122;5.406;2023-07-24T06:58:36;100438.28;;;18.88;100.00
72157;BME280;60035;52.122;5.406;2023-07-24T07:01:06;100441.81;;;19.00;100.00
72157;BME280;60035;52.122;5.406;2023-07-24T07:03:33;100440.53;;;19.06;100.00
72157;BME280;60035;52.122;5.406;2023-07-24T07:06:03;100445.00;;;19.04;100.00
72157;BME280;60035;52.122;5.406;2023-07-24T07:08:30;100446.47;;;19.08;100.00
72157;BME280;60035;52.122;5.406;2023-07-24T07:11:00;100445.19;;;19.13;100.00
72157;BME280;60035;52.122;5.406;2023-07-24T07:13:27;100444.34;;;19.13;100.00
72157;BME280;60035;52.122;5.406;2023-07-24T07:15:54;100451.19;;;19.14;100.00
72157;BME280;60035;52.122;5.406;2023-07-24T07:18:21;100450.13;;;19.17;100.00
72157;BME280;60035;52.122;5.406;2023-07-24T07:20:48;100455.69;;;19.12;100.00
72157;BME280;60035;52.122;5.406;2023-07-24T07:23:15;100449.13;;;19.06;100.00
72157;BME280;60035;52.122;5.406;2023-07-24T07:25:42;100452.34;;;19.10;100.00
72157;BME280;60035;52.122;5.406;2023-07-24T07:28:13;100455.84;;;19.22;100.00
72157;BME280;60035;52.122;5.406;2023-07-24T07:30:40;100455.53;;;19.38;100.00
72157;BME280;60035;52.122;5.406;2023-07-24T07:33:10;100458.06;;;19.51;100.00
72157;BME280;60035;52.122;5.406;2023-07-24T07:35:36;100446.75;;;19.52;100.00
72157;BME280;60035;52.122;5.406;2023-07-24T07:38:03;100442.50;;;19.51;100.00
72157;BME280;60035;52.122;5.406;2023-07-24T07:40:30;100428.78;;;19.48;100.00
72157;BME280;60035;52.122;5.406;2023-07-24T07:42:57;100433.28;;;19.58;100.00
72157;BME280;60035;52.122;5.406;2023-07-24T07:45:24;100432.66;;;19.78;100.00
72157;BME280;60035;52.122;5.406;2023-07-24T07:47:50;100433.16;;;19.84;100.00
72157;BME280;60035;52.122;5.406;2023-07-24T07:50:19;100434.31;;;19.79;100.00
72157;BME280;60035;52.122;5.406;2023-07-24T07:52:49;100429.13;;;19.79;100.00
72157;BME280;60035;52.122;5.406;2023-07-24T07:55:20;100428.44;;;19.89;99.95
72157;BME280;60035;52.122;5.406;2023-07-24T07:57:47;100428.09;;;19.93;99.85
72157;BME280;60035;52.122;5.406;2023-07-24T08:00:13;100428.34;;;19.90;99.91
72157;BME280;60035;52.122;5.406;2023-07-24T08:02:40;100421.47;;;19.89;99.42
72157;BME280;60035;52.122;5.406;2023-07-24T08:05:08;100419.25;;;19.85;99.27
72157;BME280;60035;52.122;5.406;2023-07-24T08:07:43;100413.03;;;19.74;99.53
72157;BME280;60035;52.122;5.406;2023-07-24T08:10:10;100409.03;;;19.70;99.11
72157;BME280;60035;52.122;5.406;2023-07-24T08:12:36;100413.38;;;19.70;99.11
72157;BME280;60035;52.122;5.406;2023-07-24T08:15:03;100420.97;;;19.73;99.14
72157;BME280;60035;52.122;5.406;2023-07-24T08:17:30;100423.59;;;19.84;98.57
72157;BME280;60035;52.122;5.406;2023-07-24T08:19:57;100427.19;;;20.06;97.78
72157;BME280;60035;52.122;5.406;2023-07-24T08:22:26;100416.88;;;20.16;98.00
72157;BME280;60035;52.122;5.406;2023-07-24T08:24:53;100419.97;;;20.21;97.34
72157;BME280;60035;52.122;5.406;2023-07-24T08:27:22;100422.44;;;20.45;96.30
72157;BME280;60035;52.122;5.406;2023-07-24T08:29:54;100424.19;;;20.56;96.76
72157;BME280;60035;52.122;5.406;2023-07-24T08:32:21;100417.81;;;20.71;95.84
72157;BME280;60035;52.122;5.406;2023-07-24T08:34:50;100429.63;;;20.75;94.27
72157;BME280;60035;52.122;5.406;2023-07-24T08:37:17;100429.75;;;20.74;92.93
72157;BME280;60035;52.122;5.406;2023-07-24T08:39:47;100433.78;;;20.55;93.22
72157;BME280;60035;52.122;5.406;2023-07-24T08:42:14;100432.34;;;20.51;93.47
72157;BME280;60035;52.122;5.406;2023-07-24T08:44:43;100431.75;;;20.47;93.26
72157;BME280;60035;52.122;5.406;2023-07-24T08:47:13;100427.88;;;20.42;93.40
72157;BME280;60035;52.122;5.406;2023-07-24T08:49:42;100427.88;;;20.42;93.92
72157;BME280;60035;52.122;5.406;2023-07-24T08:52:10;100423.50;;;20.54;93.69
72157;BME280;60035;52.122;5.406;2023-07-24T08:54:52;100431.28;;;20.76;93.86
72157;BME280;60035;52.122;5.406;2023-07-24T08:57:21;100421.56;;;21.22;92.33
72157;BME280;60035;52.122;5.406;2023-07-24T08:59:47;100423.94;;;21.46;91.91
72157;BME280;60035;52.122;5.406;2023-07-24T09:02:14;100430.13;;;21.67;90.11
72157;BME280;60035;52.122;5.406;2023-07-24T09:04:40;100418.91;;;21.97;88.17
72157;BME280;60035;52.122;5.406;2023-07-24T09:07:09;100420.06;;;22.14;87.31
72157;BME280;60035;52.122;5.406;2023-07-24T09:09:36;100408.69;;;22.15;87.55
72157;BME280;60035;52.122;5.406;2023-07-24T09:12:03;100405.41;;;22.44;85.79
72157;BME280;60035;52.122;5.406;2023-07-24T09:14:29;100410.81;;;22.82;85.60
72157;BME280;60035;52.122;5.406;2023-07-24T09:17:10;100410.31;;;23.17;82.53
72157;BME280;60035;52.122;5.406;2023-07-24T09:19:38;100398.88;;;22.99;82.02
72157;BME280;60035;52.122;5.406;2023-07-24T09:22:12;100392.41;;;22.93;82.56
72157;BME280;60035;52.122;5.406;2023-07-24T09:24:51;100393.22;;;22.93;81.82
72157;BME280;60035;52.122;5.406;2023-07-24T09:27:19;100400.38;;;22.72;83.13
72157;BME280;60035;52.122;5.406;2023-07-24T09:29:46;100403.88;;;22.41;81.50
72157;BME280;60035;52.122;5.406;2023-07-24T09:32:23;100394.78;;;22.05;82.59
72157;BME280;60035;52.122;5.406;2023-07-24T09:34:50;100389.19;;;21.78;83.14
72157;BME280;60035;52.122;5.406;2023-07-24T09:37:27;100385.13;;;21.65;84.31
72157;BME280;60035;52.122;5.406;2023-07-24T09:39:54;100375.69;;;21.52;84.72
72157;BME280;60035;52.122;5.406;2023-07-24T09:42:29;100381.66;;;21.22;83.99
72157;BME280;60035;52.122;5.406;2023-07-24T09:44:55;100369.41;;;21.12;84.78
72157;BME280;60035;52.122;5.406;2023-07-24T09:47:22;100368.44;;;21.13;84.80
72157;BME280;60035;52.122;5.406;2023-07-24T09:50:08;100368.78;;;21.20;86.44
72157;BME280;60035;52.122;5.406;2023-07-24T09:52:36;100371.38;;;21.41;85.13
72157;BME280;60035;52.122;5.406;2023-07-24T09:55:15;100388.28;;;21.47;84.43
72157;BME280;60035;52.122;5.406;2023-07-24T09:57:43;100392.16;;;21.53;83.77
72157;BME280;60035;52.122;5.406;2023-07-24T10:00:11;100394.59;;;21.66;83.73
72157;BME280;60035;52.122;5.406;2023-07-24T10:02:39;100394.13;;;22.12;83.51
72157;BME280;60035;52.122;5.406;2023-07-24T10:05:07;100393.13;;;22.04;80.08
72157;BME280;60035;52.122;5.406;2023-07-24T10:07:34;100386.38;;;21.91;81.00
72157;BME280;60035;52.122;5.406;2023-07-24T10:10:01;100389.34;;;21.87;80.86
72157;BME280;60035;52.122;5.406;2023-07-24T10:12:29;100401.59;;;21.65;81.19
72157;BME280;60035;52.122;5.406;2023-07-24T10:14:58;100395.94;;;21.60;82.84
72157;BME280;60035;52.122;5.406;2023-07-24T10:17:38;100383.81;;;21.80;82.60
72157;BME280;60035;52.122;5.406;2023-07-24T10:20:06;100387.59;;;22.28;82.03
72157;BME280;60035;52.122;5.406;2023-07-24T10:22:34;100373.84;;;22.67;80.06
72157;BME280;60035;52.122;5.406;2023-07-24T10:25:00;100373.44;;;22.91;78.10
72157;BME280;60035;52.122;5.406;2023-07-24T10:27:27;100374.78;;;22.75;77.96
72157;BME280;60035;52.122;5.406;2023-07-24T10:30:01;100373.38;;;22.42;78.94
72157;BME280;60035;52.122;5.406;2023-07-24T10:32:53;100362.53;;;22.06;79.08
72157;BME280;60035;52.122;5.406;2023-07-24T10:35:21;100369.63;;;21.94;79.66
72157;BME280;60035;52.122;5.406;2023-07-24T10:37:59;100368.50;;;21.87;80.00
72157;BME280;60035;52.122;5.406;2023-07-24T10:40:26;100371.28;;;21.95;79.39
72157;BME280;60035;52.122;5.406;2023-07-24T10:43:19;100366.41;;;22.11;78.80
72157;BME280;60035;52.122;5.406;2023-07-24T10:45:52;100362.63;;;22.25;78.83
72157;BME280;60035;52.122;5.406;2023-07-24T10:48:20;100366.94;;;22.46;76.48
72157;BME280;60035;52.122;5.406;2023-07-24T10:50:49;100357.41;;;22.25;73.85
72157;BME280;60035;52.122;5.406;2023-07-24T10:53:21;100346.19;;;22.54;75.71
72157;BME280;60035;52.122;5.406;2023-07-24T10:55:48;100357.09;;;22.89;75.63
72157;BME280;60035;52.122;5.406;2023-07-24T10:58:15;100358.47;;;22.83;74.15
72157;BME280;60035;52.122;5.406;2023-07-24T11:00:43;100352.81;;;22.58;74.32
72157;BME280;60035;52.122;5.406;2023-07-24T11:03:11;100343.88;;;22.61;74.60
72157;BME280;60035;52.122;5.406;2023-07-24T11:05:42;100355.44;;;22.78;74.44
72157;BME280;60035;52.122;5.406;2023-07-24T11:08:13;100359.97;;;22.86;75.24
72157;BME280;60035;52.122;5.406;2023-07-24T11:10:48;100354.19;;;23.02;73.26
72157;BME280;60035;52.122;5.406;2023-07-24T11:13:16;100352.81;;;22.98;72.96
72157;BME280;60035;52.122;5.406;2023-07-24T11:15:44;100355.44;;;22.88;72.51
72157;BME280;60035;52.122;5.406;2023-07-24T11:18:11;100358.44;;;22.63;73.63
72157;BME280;60035;52.122;5.406;2023-07-24T11:20:38;100353.06;;;22.45;75.00
72157;BME280;60035;52.122;5.406;2023-07-24T11:23:09;100371.19;;;22.47;75.08
72157;BME280;60035;52.122;5.406;2023-07-24T11:25:37;100359.69;;;22.69;76.25
72157;BME280;60035;52.122;5.406;2023-07-24T11:28:09;100360.00;;;23.25;75.62
72157;BME280;60035;52.122;5.406;2023-07-24T11:30:36;100361.13;;;23.60;74.04
72157;BME280;60035;52.122;5.406;2023-07-24T11:33:04;100354.44;;;23.95;73.55
72157;BME280;60035;52.122;5.406;2023-07-24T11:35:31;100358.91;;;24.12;70.83
72157;BME280;60035;52.122;5.406;2023-07-24T11:37:59;100360.22;;;24.26;71.92
72157;BME280;60035;52.122;5.406;2023-07-24T11:40:36;100374.97;;;24.45;69.96
72157;BME280;60035;52.122;5.406;2023-07-24T11:43:03;100375.59;;;24.29;71.32
72157;BME280;60035;52.122;5.406;2023-07-24T11:45:31;100382.69;;;23.82;73.18
72157;BME280;60035;52.122;5.406;2023-07-24T11:47:58;100377.28;;;23.36;75.18
72157;BME280;60035;52.122;5.406;2023-07-24T11:50:25;100385.69;;;23.20;76.00
72157;BME280;60035;52.122;5.406;2023-07-24T11:52:52;100382.78;;;23.03;76.89
72157;BME280;60035;52.122;5.406;2023-07-24T11:55:30;100391.03;;;22.79;78.62
72157;BME280;60035;52.122;5.406;2023-07-24T11:57:58;100384.53;;;22.63;80.93
72157;BME280;60035;52.122;5.406;2023-07-24T12:00:25;100387.94;;;22.44;81.53
72157;BME280;60035;52.122;5.406;2023-07-24T12:02:52;100385.69;;;22.30;82.12
72157;BME280;60035;52.122;5.406;2023-07-24T12:05:19;100390.66;;;22.02;81.40
72157;BME280;60035;52.122;5.406;2023-07-24T12:07:45;100377.72;;;21.91;82.45
72157;BME280;60035;52.122;5.406;2023-07-24T12:10:13;100372.97;;;22.06;82.63
72157;BME280;60035;52.122;5.406;2023-07-24T12:12:45;100376.03;;;22.11;82.65
72157;BME280;60035;52.122;5.406;2023-07-24T12:15:14;100376.47;;;22.26;81.84
72157;BME280;60035;52.122;5.406;2023-07-24T12:17:41;100372.16;;;22.36;80.29
72157;BME280;60035;52.122;5.406;2023-07-24T12:20:08;100371.69;;;22.31;80.50
72157;BME280;60035;52.122;5.406;2023-07-24T12:22:36;100360.66;;;22.58;80.34
72157;BME280;60035;52.122;5.406;2023-07-24T12:25:04;100355.88;;;22.93;79.04
72157;BME280;60035;52.122;5.406;2023-07-24T12:27:30;100362.19;;;23.10;78.23
72157;BME280;60035;52.122;5.406;2023-07-24T12:29:57;100351.72;;;23.39;75.10
72157;BME280;60035;52.122;5.406;2023-07-24T12:32:24;100355.16;;;23.30;75.14
72157;BME280;60035;52.122;5.406;2023-07-24T12:34:52;100360.81;;;23.35;74.46
72157;BME280;60035;52.122;5.406;2023-07-24T12:37:19;100352.69;;;23.28;77.11
72157;BME280;60035;52.122;5.406;2023-07-24T12:39:47;100360.41;;;23.30;78.31
72157;BME280;60035;52.122;5.406;2023-07-24T12:42:15;100358.34;;;23.24;77.76
72157;BME280;60035;52.122;5.406;2023-07-24T12:44:42;100361.09;;;23.22;78.11
72157;BME280;60035;52.122;5.406;2023-07-24T12:47:10;100367.97;;;23.13;78.08
72157;BME280;60035;52.122;5.406;2023-07-24T12:49:37;100371.78;;;22.90;78.39
72157;BME280;60035;52.122;5.406;2023-07-24T12:52:04;100366.97;;;22.75;79.43